createdAt,value
2023-05-10T00:00:16.393Z,72.8462
2023-05-10T00:01:17.560Z,72.6923
2023-05-10T00:02:19.022Z,71.3846
2023-05-10T00:03:20.435Z,72.7692
2023-05-10T00:04:21.912Z,72.7692
2023-05-10T00:05:23.276Z,75.1538
2023-05-10T00:06:25.295Z,72.7692
2023-05-10T00:07:26.094Z,73.6154
2023-05-10T00:08:27.552Z,73.8462
2023-05-10T00:09:28.925Z,74.0769
2023-05-10T00:10:30.366Z,73.0769
2023-05-10T00:11:31.824Z,71.8462
2023-05-10T00:12:33.201Z,71.3846
2023-05-10T00:13:34.690Z,71.1538
2023-05-10T00:14:36.034Z,71.2308
2023-05-10T00:15:37.517Z,64.6923
2023-05-10T00:16:38.972Z,65.1538
2023-05-10T00:17:40.421Z,67.7692
2023-05-10T00:18:41.631Z,69.6923
2023-05-10T00:19:43.176Z,67.9231
2023-05-10T00:20:44.589Z,68.3077
2023-05-10T00:21:46.079Z,64.2308
2023-05-10T00:22:47.486Z,58.2308
2023-05-10T00:23:48.943Z,61.8462
2023-05-10T00:24:50.321Z,66.8462
2023-05-10T00:25:52.373Z,66.2308
2023-05-10T00:26:53.140Z,62.7692
2023-05-10T00:27:54.613Z,56.8462
2023-05-10T00:28:55.940Z,57.0000
2023-05-10T00:29:57.418Z,61.7692
2023-05-10T00:30:58.849Z,68.1538
2023-05-10T00:32:00.347Z,72.7692
2023-05-10T00:33:01.744Z,63.4615
2023-05-10T00:34:03.197Z,63.3846
2023-05-10T00:35:04.600Z,49.3846
2023-05-10T00:36:05.966Z,56.0000
2023-05-10T00:37:07.385Z,57.1538
2023-05-10T00:38:08.821Z,64.8462
2023-05-10T00:39:10.163Z,65.4615
2023-05-10T00:40:11.637Z,66.5385
2023-05-10T00:41:13.821Z,63.4615
2023-05-10T00:42:14.539Z,62.6154
2023-05-10T00:43:15.873Z,60.4615
2023-05-10T00:44:17.345Z,63.3077
2023-05-10T00:45:18.862Z,67.0000
2023-05-10T00:46:20.349Z,67.6154
2023-05-10T00:47:21.700Z,63.0000
2023-05-10T00:48:23.195Z,54.9231
2023-05-10T00:49:24.548Z,53.3846
2023-05-10T00:50:25.893Z,62.1538
2023-05-10T00:51:27.378Z,64.4615
2023-05-10T00:52:28.848Z,67.6154
2023-05-10T00:53:30.190Z,67.6923
2023-05-10T00:54:31.635Z,61.0769
2023-05-10T00:55:33.033Z,51.9231
2023-05-10T00:56:34.526Z,51.0769
2023-05-10T00:57:35.887Z,59.4615
2023-05-10T00:58:37.200Z,60.3077
2023-05-10T00:59:38.711Z,58.2308
2023-05-10T01:00:40.150Z,58.6154
2023-05-10T01:01:41.601Z,59.1538
2023-05-10T01:02:43.071Z,59.3846
2023-05-10T01:03:44.399Z,55.6154
2023-05-10T01:04:45.851Z,57.0000
2023-05-10T01:05:47.242Z,61.8462
2023-05-10T01:06:48.785Z,64.8462
2023-05-10T01:07:50.124Z,63.3846
2023-05-10T01:08:51.555Z,63.4615
2023-05-10T01:09:52.917Z,60.7692
2023-05-10T01:10:54.373Z,55.7692
2023-05-10T01:11:55.815Z,53.0000
2023-05-10T01:12:57.340Z,58.4615
2023-05-10T01:13:58.704Z,64.7692
2023-05-10T01:15:00.162Z,64.9231
2023-05-10T01:16:01.504Z,61.5385
2023-05-10T01:17:02.913Z,56.8462
2023-05-10T01:18:04.317Z,58.3077
2023-05-10T01:19:05.763Z,52.3077
2023-05-10T01:20:07.144Z,52.7692
2023-05-10T01:21:08.592Z,60.0769
2023-05-10T01:22:09.993Z,62.6923
2023-05-10T01:23:12.366Z,66.1538
2023-05-10T01:24:12.837Z,60.2308
2023-05-10T01:25:14.292Z,57.5385
2023-05-10T01:26:15.720Z,46.9231
2023-05-10T01:27:17.165Z,57.0000
2023-05-10T01:28:18.543Z,61.6154
2023-05-10T01:29:19.976Z,61.1538
2023-05-10T01:30:22.187Z,61.9231
2023-05-10T01:31:22.901Z,61.6923
2023-05-10T01:32:24.281Z,56.0769
2023-05-10T01:33:25.600Z,49.3846
2023-05-10T01:34:27.062Z,51.0000
2023-05-10T01:35:28.546Z,54.0769
2023-05-10T01:36:29.962Z,61.6923
2023-05-10T01:37:31.395Z,56.6923
2023-05-10T01:38:32.762Z,62.7692
2023-05-10T01:39:34.224Z,59.6154
2023-05-10T01:40:35.598Z,51.0000
2023-05-10T01:41:37.037Z,51.4615
2023-05-10T01:42:38.477Z,51.6923
2023-05-10T01:43:39.944Z,56.9231
2023-05-10T01:44:41.290Z,61.6923
2023-05-10T01:45:42.751Z,60.1538
2023-05-10T01:46:44.157Z,63.3077
2023-05-10T01:47:45.681Z,55.6154
2023-05-10T01:48:47.043Z,54.5385
2023-05-10T01:49:48.491Z,48.0769
2023-05-10T01:50:49.755Z,47.3077
2023-05-10T01:51:51.375Z,54.6154
2023-05-10T01:52:53.327Z,67.2308
2023-05-10T01:53:54.140Z,60.6154
2023-05-10T01:54:55.503Z,54.8462
2023-05-10T01:55:57.023Z,57.8462
2023-05-10T01:56:58.436Z,52.4615
2023-05-10T01:57:59.760Z,49.8462
2023-05-10T01:59:01.152Z,49.0769
2023-05-10T02:00:02.678Z,52.5385
2023-05-10T02:01:04.065Z,59.6154
2023-05-10T02:02:05.525Z,57.6923
2023-05-10T02:03:07.026Z,61.9231
2023-05-10T02:04:08.468Z,59.3077
2023-05-10T02:05:09.686Z,57.0000
2023-05-10T02:06:11.284Z,52.3077
2023-05-10T02:07:12.584Z,45.6154
2023-05-10T02:08:14.062Z,56.0000
2023-05-10T02:09:15.484Z,60.7692
2023-05-10T02:10:17.098Z,65.0000
2023-05-10T02:11:18.192Z,59.0769
2023-05-10T02:12:19.726Z,60.9231
2023-05-10T02:13:21.251Z,52.6923
2023-05-10T02:14:22.577Z,53.1538
2023-05-10T02:15:24.028Z,49.0769
2023-05-10T02:16:25.452Z,52.9231
2023-05-10T02:17:26.836Z,58.8462
2023-05-10T02:18:28.269Z,58.8462
2023-05-10T02:19:29.782Z,60.1538
2023-05-10T02:20:31.136Z,59.5385
2023-05-10T02:21:32.555Z,56.5385
2023-05-10T02:22:33.886Z,50.6923
2023-05-10T02:23:35.381Z,44.4615
2023-05-10T02:24:36.780Z,55.5385
2023-05-10T02:25:38.092Z,60.4615
2023-05-10T02:26:39.616Z,64.8462
2023-05-10T02:27:41.115Z,60.6923
2023-05-10T02:28:42.428Z,63.6154
2023-05-10T02:29:43.936Z,58.0769
2023-05-10T02:30:45.294Z,51.0769
2023-05-10T02:31:46.741Z,49.4615
2023-05-10T02:32:48.139Z,55.5385
2023-05-10T02:33:49.582Z,59.9231
2023-05-10T02:34:50.920Z,65.6923
2023-05-10T02:35:52.407Z,64.3077
2023-05-10T02:36:53.810Z,57.3846
2023-05-10T02:37:55.279Z,58.0000
2023-05-10T02:38:56.628Z,62.0769
2023-05-10T02:39:58.130Z,55.4615
2023-05-10T02:40:59.480Z,52.0769
2023-05-10T02:42:00.830Z,55.8462
2023-05-10T02:43:02.405Z,63.6154
2023-05-10T02:44:03.750Z,65.5385
2023-05-10T02:45:05.203Z,66.8462
2023-05-10T02:46:06.631Z,60.0769
2023-05-10T02:47:07.972Z,59.3077
2023-05-10T02:48:09.538Z,59.6923
2023-05-10T02:49:10.792Z,55.3846
2023-05-10T02:50:12.307Z,53.7692
2023-05-10T02:51:14.389Z,57.8462
2023-05-10T02:52:15.157Z,62.2308
2023-05-10T02:53:16.514Z,66.3077
2023-05-10T02:54:17.888Z,58.9231
2023-05-10T02:55:19.416Z,61.0000
2023-05-10T02:56:20.916Z,62.3077
2023-05-10T02:57:22.276Z,63.4615
2023-05-10T02:58:23.737Z,50.3077
2023-05-10T02:59:25.074Z,53.0000
2023-05-10T03:00:26.638Z,56.8462
2023-05-10T03:01:27.990Z,64.8462
2023-05-10T03:02:29.346Z,70.3077
2023-05-10T03:03:30.706Z,69.5385
2023-05-10T03:04:32.294Z,60.7692
2023-05-10T03:05:33.649Z,64.6923
2023-05-10T03:06:35.027Z,59.6154
2023-05-10T03:07:36.424Z,53.8462
2023-05-10T03:08:37.963Z,52.8462
2023-05-10T03:09:39.282Z,55.0769
2023-05-10T03:10:40.648Z,62.0769
2023-05-10T03:11:42.128Z,67.4615
2023-05-10T03:12:43.595Z,64.4615
2023-05-10T03:13:44.934Z,61.3077
2023-05-10T03:14:46.388Z,64.0769
2023-05-10T03:15:48.389Z,59.0000
2023-05-10T03:16:49.346Z,55.7692
2023-05-10T03:17:50.727Z,53.3846
2023-05-10T03:18:52.157Z,59.3846
2023-05-10T03:19:53.438Z,61.6923
2023-05-10T03:20:54.988Z,61.6923
2023-05-10T03:21:56.377Z,61.4615
2023-05-10T03:22:57.817Z,64.7692
2023-05-10T03:23:59.178Z,62.5385
2023-05-10T03:25:00.555Z,57.8462
2023-05-10T03:26:02.070Z,52.0000
2023-05-10T03:27:03.519Z,55.0769
2023-05-10T03:28:04.925Z,63.5385
2023-05-10T03:29:06.322Z,64.1538
2023-05-10T03:30:07.715Z,66.3846
2023-05-10T03:31:09.139Z,63.6154
2023-05-10T03:32:10.658Z,61.2308
2023-05-10T03:33:12.068Z,61.6923
2023-05-10T03:34:13.388Z,57.3846
2023-05-10T03:35:14.858Z,49.2308
2023-05-10T03:36:16.235Z,52.7692
2023-05-10T03:37:17.813Z,60.7692
2023-05-10T03:38:19.177Z,65.6154
2023-05-10T03:39:20.581Z,65.5385
2023-05-10T03:40:21.930Z,66.0769
2023-05-10T03:41:23.435Z,65.3077
2023-05-10T03:42:24.812Z,61.8462
2023-05-10T03:43:26.243Z,62.9231
2023-05-10T03:44:27.628Z,52.6923
2023-05-10T03:45:28.938Z,51.2308
2023-05-10T03:46:30.492Z,59.4615
2023-05-10T03:47:31.976Z,62.6923
2023-05-10T03:48:33.326Z,67.3846
2023-05-10T03:49:34.780Z,61.7692
2023-05-10T03:50:36.134Z,66.2308
2023-05-10T03:51:37.567Z,61.6923
2023-05-10T03:52:39.936Z,52.9231
2023-05-10T03:53:40.378Z,53.6923
2023-05-10T03:54:41.844Z,57.6923
2023-05-10T03:55:43.272Z,57.6923
2023-05-10T03:56:44.671Z,64.1538
2023-05-10T03:57:46.161Z,60.7692
2023-05-10T03:58:47.525Z,64.0000
2023-05-10T03:59:48.941Z,58.8462
2023-05-10T04:00:50.326Z,51.4615
2023-05-10T04:01:51.814Z,58.2308
2023-05-10T04:02:53.314Z,60.6923
2023-05-10T04:03:54.750Z,61.9231
2023-05-10T04:04:56.005Z,61.6154
2023-05-10T04:05:57.532Z,64.0000
2023-05-10T04:06:58.910Z,63.8462
2023-05-10T04:08:00.402Z,64.7692
2023-05-10T04:09:02.375Z,57.3846
2023-05-10T04:10:03.214Z,53.6923
2023-05-10T04:11:04.492Z,57.0000
2023-05-10T04:12:06.491Z,64.1538
2023-05-10T04:13:07.699Z,66.4615
2023-05-10T04:14:08.994Z,59.6154
2023-05-10T04:15:10.283Z,58.4615
2023-05-10T04:16:11.823Z,59.4615
2023-05-10T04:17:13.169Z,53.3846
2023-05-10T04:18:14.621Z,51.3077
2023-05-10T04:19:16.028Z,57.1538
2023-05-10T04:20:17.625Z,61.3077
2023-05-10T04:21:18.825Z,66.3846
2023-05-10T04:22:20.294Z,63.0769
2023-05-10T04:23:21.765Z,62.9231
2023-05-10T04:24:23.155Z,58.6154
2023-05-10T04:25:24.588Z,53.3077
2023-05-10T04:26:25.923Z,55.7692
2023-05-10T04:27:27.372Z,54.9231
2023-05-10T04:28:28.773Z,56.8462
2023-05-10T04:29:30.201Z,65.9231
2023-05-10T04:30:31.676Z,64.3846
2023-05-10T04:31:33.133Z,61.8462
2023-05-10T04:32:35.040Z,59.7692
2023-05-10T04:33:35.925Z,58.6154
2023-05-10T04:34:37.382Z,53.2308
2023-05-10T04:35:38.850Z,56.6923
2023-05-10T04:36:40.224Z,62.0000
2023-05-10T04:37:41.673Z,66.0000
2023-05-10T04:38:43.025Z,59.2308
2023-05-10T04:39:45.459Z,63.6154
2023-05-10T04:40:45.899Z,63.9231
2023-05-10T04:41:47.327Z,59.8462
2023-05-10T04:42:48.745Z,58.0769
2023-05-10T04:43:50.178Z,59.8462
2023-05-10T04:44:51.586Z,64.0769
2023-05-10T04:45:53.036Z,66.6923
2023-05-10T04:46:54.511Z,60.6923
2023-05-10T04:47:56.001Z,64.6154
2023-05-10T04:48:57.334Z,63.0769
2023-05-10T04:49:58.826Z,60.0769
2023-05-10T04:51:00.142Z,52.0769
2023-05-10T04:52:01.671Z,53.9231
2023-05-10T04:53:03.071Z,62.9231
2023-05-10T04:54:06.626Z,67.0000
2023-05-10T04:55:06.907Z,70.6923
2023-05-10T04:56:07.266Z,60.7692
2023-05-10T04:57:08.670Z,64.9231
2023-05-10T04:58:10.128Z,56.0769
2023-05-10T04:59:11.583Z,52.1538
2023-05-10T05:00:12.999Z,58.0000
2023-05-10T05:01:14.383Z,63.2308
2023-05-10T05:02:15.890Z,63.2308
2023-05-10T05:03:17.266Z,62.4615
2023-05-10T05:04:18.618Z,61.8462
2023-05-10T05:05:20.068Z,60.9231
2023-05-10T05:06:21.526Z,58.5385
2023-05-10T05:07:22.845Z,57.3846
2023-05-10T05:08:24.385Z,65.1538
2023-05-10T05:09:25.728Z,69.0769
2023-05-10T05:10:27.134Z,68.0000
2023-05-10T05:11:29.465Z,63.3077
2023-05-10T05:12:30.034Z,62.0000
2023-05-10T05:13:31.458Z,60.6154
2023-05-10T05:14:32.849Z,53.3077
2023-05-10T05:15:34.265Z,59.5385
2023-05-10T05:16:35.865Z,63.0000
2023-05-10T05:17:37.219Z,64.0000
2023-05-10T05:18:38.584Z,67.6923
2023-05-10T05:19:39.990Z,62.7692
2023-05-10T05:20:42.557Z,69.3077
2023-05-10T05:21:42.867Z,61.0769
2023-05-10T05:22:44.298Z,58.6923
2023-05-10T05:23:45.678Z,65.8462
2023-05-10T05:24:47.198Z,69.7692
2023-05-10T05:25:48.525Z,67.7692
2023-05-10T05:26:50.057Z,62.4615
2023-05-10T05:27:51.423Z,64.6923
2023-05-10T05:28:52.767Z,58.9231
2023-05-10T05:29:54.239Z,57.7692
2023-05-10T05:30:55.859Z,63.7692
2023-05-10T05:31:57.237Z,68.0769
2023-05-10T05:32:58.541Z,67.0769
2023-05-10T05:33:59.956Z,64.6923
2023-05-10T05:35:01.449Z,61.6154
2023-05-10T05:36:02.876Z,64.6923
2023-05-10T05:37:04.252Z,62.6923
2023-05-10T05:38:05.653Z,58.8462
2023-05-10T05:39:06.924Z,67.1538
2023-05-10T05:40:08.373Z,64.9231
2023-05-10T05:41:09.937Z,64.8462
2023-05-10T05:42:11.409Z,63.8462
2023-05-10T05:43:13.230Z,65.3077
2023-05-10T05:44:14.071Z,63.0000
2023-05-10T05:45:15.896Z,64.1538
2023-05-10T05:46:17.033Z,67.4615
2023-05-10T05:47:18.462Z,69.1538
2023-05-10T05:48:19.802Z,65.4615
2023-05-10T05:49:21.264Z,65.0769
2023-05-10T05:50:22.649Z,68.8462
2023-05-10T05:51:24.142Z,65.4615
2023-05-10T05:52:25.602Z,62.1538
2023-05-10T05:53:26.905Z,69.3077
2023-05-10T05:54:28.330Z,72.9231
2023-05-10T05:55:29.687Z,66.7692
2023-05-10T05:56:31.251Z,64.9231
2023-05-10T05:57:32.668Z,67.0000
2023-05-10T05:58:34.189Z,69.6154
2023-05-10T05:59:35.480Z,66.0000
2023-05-10T06:00:36.880Z,66.0000
2023-05-10T06:01:38.371Z,75.0000
2023-05-10T06:02:39.940Z,72.7692
2023-05-10T06:03:41.208Z,65.8462
2023-05-10T06:04:44.689Z,67.0000
2023-05-10T06:05:44.110Z,68.5385
2023-05-10T06:06:45.405Z,77.6154
2023-05-10T06:07:46.852Z,87.6154
2023-05-10T06:08:48.219Z,92.3077
2023-05-10T06:09:49.686Z,103.7692
2023-05-10T06:10:51.096Z,109.6923
2023-05-10T06:11:52.543Z,115.2308
2023-05-10T06:12:53.928Z,118.4615
2023-05-10T06:13:55.253Z,108.0000
2023-05-10T06:14:56.731Z,106.5385
2023-05-10T06:15:58.144Z,114.3077
2023-05-10T06:16:59.626Z,125.5385
2023-05-10T06:18:01.046Z,132.5385
2023-05-10T06:19:02.333Z,147.6923
2023-05-10T06:20:03.856Z,147.7692
2023-05-10T06:21:05.186Z,148.7692
2023-05-10T06:22:06.719Z,153.3846
2023-05-10T06:23:08.043Z,161.7692
2023-05-10T06:24:09.655Z,161.7692
2023-05-10T06:25:10.879Z,162.8462
2023-05-10T06:26:12.309Z,167.9231
2023-05-10T06:27:13.812Z,164.6154
2023-05-10T06:28:15.234Z,169.3846
2023-05-10T06:29:16.609Z,177.7692
2023-05-10T06:30:18.222Z,183.2308
2023-05-10T06:31:19.518Z,191.3846
2023-05-10T06:32:20.920Z,196.9231
2023-05-10T06:33:22.311Z,177.6154
2023-05-10T06:34:23.755Z,177.6154
2023-05-10T06:35:25.159Z,187.7692
2023-05-10T06:36:26.689Z,196.1538
2023-05-10T06:37:28.147Z,200.6923
2023-05-10T06:38:29.641Z,212.0769
2023-05-10T06:39:30.878Z,204.8462
2023-05-10T06:40:32.847Z,187.9231
2023-05-10T06:41:33.689Z,193.5385
2023-05-10T06:42:35.311Z,211.3077
2023-05-10T06:43:36.631Z,215.0000
2023-05-10T06:44:37.922Z,222.3077
2023-05-10T06:45:39.346Z,210.3077
2023-05-10T06:46:40.772Z,200.3846
2023-05-10T06:47:42.255Z,211.3846
2023-05-10T06:48:43.718Z,225.9231
2023-05-10T06:49:45.009Z,233.6154
2023-05-10T06:50:46.534Z,221.8462
2023-05-10T06:51:47.913Z,216.5385
2023-05-10T06:52:50.214Z,219.8462
2023-05-10T06:53:51.142Z,231.8462
2023-05-10T06:54:52.216Z,238.2308
2023-05-10T06:55:53.586Z,222.5385
2023-05-10T06:56:55.057Z,216.0769
2023-05-10T06:57:56.494Z,225.3846
2023-05-10T06:58:57.916Z,243.7692
2023-05-10T06:59:59.286Z,246.3077
2023-05-10T07:01:00.804Z,229.0769
2023-05-10T07:02:02.180Z,221.9231
2023-05-10T07:03:03.644Z,233.3077
2023-05-10T07:04:04.960Z,247.9231
2023-05-10T07:05:06.474Z,244.3077
2023-05-10T07:06:11.356Z,222.4615
2023-05-10T07:07:09.323Z,221.6667
2023-05-10T07:08:10.747Z,238.7692
2023-05-10T07:09:12.213Z,250.9231
2023-05-10T07:10:13.531Z,240.4615
2023-05-10T07:11:14.998Z,214.3846
2023-05-10T07:12:16.729Z,223.2308
2023-05-10T07:13:17.915Z,237.1538
2023-05-10T07:14:19.287Z,249.4615
2023-05-10T07:15:20.763Z,232.8462
2023-05-10T07:16:22.058Z,214.8462
2023-05-10T07:17:23.593Z,229.8462
2023-05-10T07:18:24.926Z,249.0000
2023-05-10T07:19:26.388Z,248.6154
2023-05-10T07:20:27.814Z,217.5385
2023-05-10T07:21:29.293Z,197.8462
2023-05-10T07:22:30.596Z,209.2308
2023-05-10T07:23:32.123Z,219.5385
2023-05-10T07:24:33.456Z,226.3846
2023-05-10T07:25:34.932Z,217.1538
2023-05-10T07:26:36.404Z,184.2308
2023-05-10T07:27:37.743Z,186.0769
2023-05-10T07:28:39.300Z,191.3846
2023-05-10T07:29:40.615Z,203.2308
2023-05-10T07:30:42.089Z,211.3077
2023-05-10T07:31:43.433Z,201.7692
2023-05-10T07:32:44.896Z,174.0769
2023-05-10T07:33:46.283Z,172.6154
2023-05-10T07:34:47.732Z,184.3077
2023-05-10T07:35:49.138Z,185.3846
2023-05-10T07:36:50.571Z,190.6154
2023-05-10T07:37:51.997Z,203.3077
2023-05-10T07:38:53.433Z,191.0000
2023-05-10T07:39:54.922Z,164.8462
2023-05-10T07:40:56.314Z,164.1538
2023-05-10T07:41:57.589Z,175.4615
2023-05-10T07:42:59.162Z,181.3077
2023-05-10T07:44:00.589Z,184.5385
2023-05-10T07:45:02.032Z,193.6923
2023-05-10T07:46:03.501Z,194.6923
2023-05-10T07:47:04.803Z,173.0769
2023-05-10T07:48:06.387Z,157.7692
2023-05-10T07:49:07.585Z,165.8462
2023-05-10T07:50:09.217Z,171.7692
2023-05-10T07:51:10.630Z,178.4615
2023-05-10T07:52:12.051Z,185.3077
2023-05-10T07:53:13.424Z,185.3846
2023-05-10T07:54:14.887Z,185.1538
2023-05-10T07:55:16.533Z,163.1538
2023-05-10T07:56:17.741Z,158.2308
2023-05-10T07:57:19.013Z,162.6923
2023-05-10T07:58:20.498Z,174.6154
2023-05-10T07:59:21.980Z,176.6154
2023-05-10T08:00:23.470Z,184.0769
2023-05-10T08:01:24.819Z,184.1538
2023-05-10T08:02:26.407Z,185.1538
2023-05-10T08:03:27.759Z,163.0769
2023-05-10T08:04:29.372Z,160.7692
2023-05-10T08:05:30.535Z,163.8462
2023-05-10T08:06:32.062Z,170.7692
2023-05-10T08:07:33.399Z,176.3077
2023-05-10T08:08:34.796Z,182.8462
2023-05-10T08:09:36.447Z,189.9231
2023-05-10T08:10:37.708Z,176.2308
2023-05-10T08:11:39.092Z,158.6923
2023-05-10T08:12:40.622Z,158.7692
2023-05-10T08:13:41.825Z,170.4615
2023-05-10T08:14:43.706Z,178.0769
2023-05-10T08:15:44.798Z,178.0000
2023-05-10T08:16:46.244Z,183.9231
2023-05-10T08:17:47.595Z,177.0000
2023-05-10T08:18:49.118Z,154.0769
2023-05-10T08:19:50.416Z,154.5385
2023-05-10T08:20:51.821Z,159.9231
2023-05-10T08:21:53.357Z,172.2308
2023-05-10T08:22:54.823Z,180.6154
2023-05-10T08:23:56.245Z,185.5385
2023-05-10T08:24:57.669Z,186.7692
2023-05-10T08:25:59.034Z,169.3077
2023-05-10T08:27:00.496Z,159.0000
2023-05-10T08:28:01.876Z,162.3077
2023-05-10T08:29:03.291Z,175.2308
2023-05-10T08:30:04.726Z,184.6923
2023-05-10T08:31:06.289Z,196.3846
2023-05-10T08:32:07.623Z,205.0769
2023-05-10T08:33:08.985Z,200.3077
2023-05-10T08:34:10.417Z,181.3846
2023-05-10T08:35:11.841Z,188.6154
2023-05-10T08:36:13.355Z,198.7692
2023-05-10T08:37:14.792Z,205.6154
2023-05-10T08:38:16.098Z,211.8462
2023-05-10T08:39:29.383Z,216.0000
2023-05-10T08:40:19.071Z,218.8333
2023-05-10T08:41:20.440Z,191.8462
2023-05-10T08:42:22.185Z,178.9231
2023-05-10T08:43:23.225Z,184.0769
2023-05-10T08:44:24.689Z,195.4615
2023-05-10T08:45:26.196Z,196.5385
2023-05-10T08:46:27.715Z,200.0769
2023-05-10T08:47:29.053Z,202.8462
2023-05-10T08:48:30.726Z,199.3077
2023-05-10T08:49:32.011Z,190.0769
2023-05-10T08:50:33.432Z,167.2308
2023-05-10T08:51:34.835Z,175.9231
2023-05-10T08:52:36.446Z,180.7692
2023-05-10T08:53:37.695Z,182.2308
2023-05-10T08:54:39.080Z,191.0000
2023-05-10T08:55:40.321Z,193.7692
2023-05-10T08:56:42.055Z,194.1538
2023-05-10T08:57:43.373Z,183.3077
2023-05-10T08:58:44.722Z,162.6154
2023-05-10T08:59:46.221Z,168.0000
2023-05-10T09:00:48.158Z,167.8462
2023-05-10T09:01:49.124Z,178.1538
2023-05-10T09:02:50.689Z,178.3077
2023-05-10T09:03:51.811Z,181.1538
2023-05-10T09:04:53.354Z,186.2308
2023-05-10T09:05:54.729Z,184.1538
2023-05-10T09:06:56.194Z,163.4615
2023-05-10T09:07:57.533Z,159.0769
2023-05-10T09:08:59.291Z,165.1538
2023-05-10T09:10:00.372Z,172.4615
2023-05-10T09:11:01.761Z,179.2308
2023-05-10T09:12:03.305Z,182.3077
2023-05-10T09:13:04.840Z,188.6154
2023-05-10T09:14:06.045Z,174.3077
2023-05-10T09:15:07.460Z,160.0769
2023-05-10T09:16:20.439Z,166.6154
2023-05-10T09:17:10.503Z,174.6667
2023-05-10T09:18:11.857Z,184.6154
2023-05-10T09:19:13.385Z,189.3077
2023-05-10T09:20:14.494Z,190.6923
2023-05-10T09:21:16.217Z,185.1538
2023-05-10T09:22:17.456Z,168.6154
2023-05-10T09:23:18.761Z,163.9231
2023-05-10T09:24:20.348Z,174.5385
2023-05-10T09:25:21.793Z,180.0000
2023-05-10T09:26:23.058Z,184.2308
2023-05-10T09:27:24.776Z,193.5385
2023-05-10T09:28:26.133Z,191.6923
2023-05-10T09:29:27.615Z,178.5385
2023-05-10T09:30:28.786Z,157.8462
2023-05-10T09:31:30.589Z,162.7692
2023-05-10T09:32:31.779Z,169.9231
2023-05-10T09:33:33.402Z,176.0000
2023-05-10T09:34:34.531Z,179.7692
2023-05-10T09:35:35.848Z,190.1538
2023-05-10T09:36:37.707Z,193.9231
2023-05-10T09:37:38.679Z,172.2308
2023-05-10T09:38:40.405Z,162.2308
2023-05-10T09:39:41.631Z,164.2308
2023-05-10T09:40:43.038Z,172.7692
2023-05-10T09:41:44.532Z,182.9231
2023-05-10T09:42:46.231Z,188.6923
2023-05-10T09:43:47.525Z,188.0000
2023-05-10T09:44:49.109Z,186.3846
2023-05-10T09:45:50.174Z,167.5385
2023-05-10T09:46:51.746Z,166.7692
2023-05-10T09:47:53.214Z,172.1538
2023-05-10T09:48:54.503Z,178.2308
2023-05-10T09:49:55.864Z,190.6154
2023-05-10T09:50:57.395Z,192.9231
2023-05-10T09:51:58.822Z,190.3077
2023-05-10T09:53:00.195Z,169.9231
2023-05-10T09:54:01.683Z,168.9231
2023-05-10T09:55:02.993Z,175.0769
2023-05-10T09:56:04.514Z,176.4615
2023-05-10T09:57:05.931Z,179.4615
2023-05-10T09:58:07.360Z,201.8462
2023-05-10T09:59:08.895Z,290.5385
2023-05-10T10:00:10.143Z,348.5385
2023-05-10T10:01:12.015Z,337.7692
2023-05-10T10:02:13.186Z,336.8462
2023-05-10T10:03:14.457Z,336.3077
2023-05-10T10:04:15.916Z,336.0769
2023-05-10T10:05:17.717Z,336.2308
2023-05-10T10:06:26.802Z,331.1538
2023-05-10T10:07:20.180Z,314.3333
2023-05-10T10:08:22.334Z,292.0769
2023-05-10T10:09:23.210Z,286.3846
2023-05-10T10:10:24.336Z,288.9231
2023-05-10T10:11:25.782Z,290.5385
2023-05-10T10:12:27.338Z,292.0000
2023-05-10T10:13:28.900Z,291.6154
2023-05-10T10:14:30.250Z,287.6923
2023-05-10T10:15:31.555Z,280.0769
2023-05-10T10:16:33.023Z,266.3846
2023-05-10T10:17:34.394Z,263.2308
2023-05-10T10:18:35.781Z,275.0769
2023-05-10T10:19:37.604Z,277.3077
2023-05-10T10:20:38.587Z,278.0000
2023-05-10T10:21:40.161Z,280.6154
2023-05-10T10:22:41.494Z,271.6154
2023-05-10T10:23:43.074Z,255.2308
2023-05-10T10:24:44.508Z,249.9231
2023-05-10T10:25:45.814Z,257.4615
2023-05-10T10:26:47.262Z,254.8462
2023-05-10T10:27:48.604Z,258.6154
2023-05-10T10:28:50.323Z,259.1538
2023-05-10T10:29:51.511Z,249.3077
2023-05-10T10:30:53.041Z,234.5385
2023-05-10T10:31:54.297Z,231.6923
2023-05-10T10:32:55.699Z,232.7692
2023-05-10T10:33:57.176Z,236.2308
2023-05-10T10:34:58.738Z,242.7692
2023-05-10T10:35:59.968Z,242.6923
2023-05-10T10:37:01.445Z,241.6154
2023-05-10T10:38:02.859Z,217.6154
2023-05-10T10:39:04.607Z,216.4615
2023-05-10T10:40:05.714Z,221.5385
2023-05-10T10:41:07.176Z,226.7692
2023-05-10T10:42:08.454Z,227.0769
2023-05-10T10:43:10.154Z,225.2308
2023-05-10T10:44:11.735Z,229.3846
2023-05-10T10:45:12.903Z,211.0769
2023-05-10T10:46:14.284Z,204.0769
2023-05-10T10:47:15.625Z,207.6154
2023-05-10T10:48:17.092Z,211.7692
2023-05-10T10:49:18.611Z,213.5385
2023-05-10T10:50:20.035Z,219.0769
2023-05-10T10:51:21.342Z,214.0000
2023-05-10T10:52:22.788Z,195.2308
2023-05-10T10:53:24.281Z,190.2308
2023-05-10T10:54:25.716Z,199.3077
2023-05-10T10:55:27.197Z,212.1538
2023-05-10T10:56:28.480Z,211.1538
2023-05-10T10:57:29.910Z,217.2308
2023-05-10T10:58:31.257Z,211.7692
2023-05-10T10:59:32.734Z,191.7692
2023-05-10T11:00:34.220Z,192.8462
2023-05-10T11:01:35.700Z,198.1538
2023-05-10T11:02:37.105Z,204.0000
2023-05-10T11:03:38.400Z,206.5385
2023-05-10T11:04:40.122Z,214.7692
2023-05-10T11:05:41.527Z,196.0769
2023-05-10T11:06:42.617Z,179.3077
2023-05-10T11:07:44.413Z,178.7692
2023-05-10T11:08:45.746Z,191.1538
2023-05-10T11:09:48.166Z,197.5385
2023-05-10T11:10:48.642Z,209.7692
2023-05-10T11:11:50.230Z,210.1538
2023-05-10T11:12:51.142Z,203.4615
2023-05-10T11:13:52.663Z,189.8462
2023-05-10T11:14:54.038Z,188.6154
2023-05-10T11:15:55.528Z,195.3077
2023-05-10T11:16:56.924Z,208.8462
2023-05-10T11:17:58.340Z,218.5385
2023-05-10T11:18:59.771Z,217.6154
2023-05-10T11:20:01.170Z,192.1538
2023-05-10T11:21:02.664Z,184.6923
2023-05-10T11:22:04.069Z,193.8462
2023-05-10T11:23:05.432Z,205.3846
2023-05-10T11:24:07.103Z,213.6923
2023-05-10T11:25:08.500Z,207.2308
2023-05-10T11:26:09.582Z,187.0769
2023-05-10T11:27:11.069Z,184.5385
2023-05-10T11:28:12.466Z,193.0769
2023-05-10T11:29:13.976Z,204.1538
2023-05-10T11:30:15.877Z,213.0000
2023-05-10T11:31:16.945Z,212.2308
2023-05-10T11:32:18.161Z,196.7692
2023-05-10T11:33:19.610Z,181.3846
2023-05-10T11:34:20.992Z,195.8462
2023-05-10T11:35:22.446Z,200.0000
2023-05-10T11:36:23.871Z,206.4615
2023-05-10T11:37:25.305Z,208.5385
2023-05-10T11:38:26.735Z,203.6923
2023-05-10T11:39:28.106Z,182.7692
2023-05-10T11:40:29.548Z,178.3077
2023-05-10T11:41:31.093Z,182.3846
2023-05-10T11:42:32.340Z,193.3846
2023-05-10T11:43:33.984Z,192.5385
2023-05-10T11:44:35.294Z,193.6923
2023-05-10T11:45:36.633Z,192.0769
2023-05-10T11:46:38.446Z,173.9231
2023-05-10T11:47:40.794Z,172.2308
2023-05-10T11:48:40.970Z,178.5385
2023-05-10T11:49:42.316Z,183.3077
2023-05-10T11:50:43.884Z,185.2308
2023-05-10T11:51:45.198Z,190.5385
2023-05-10T11:52:46.941Z,187.6923
2023-05-10T11:53:48.048Z,163.0769
2023-05-10T11:54:49.474Z,164.6923
2023-05-10T11:55:50.931Z,173.6154
2023-05-10T11:56:52.398Z,178.5385
2023-05-10T11:57:54.115Z,185.8462
2023-05-10T11:58:55.142Z,189.7692
2023-05-10T11:59:56.659Z,180.2308
2023-05-10T12:00:57.995Z,162.1538
2023-05-10T12:01:59.826Z,166.8462
2023-05-10T12:03:01.180Z,170.1538
2023-05-10T12:04:02.493Z,182.1538
2023-05-10T12:05:04.721Z,188.5385
2023-05-10T12:06:05.098Z,185.8462
2023-05-10T12:07:06.653Z,164.9231
2023-05-10T12:08:08.001Z,158.0000
2023-05-10T12:09:09.539Z,164.9231
2023-05-10T12:10:10.802Z,176.2308
2023-05-10T12:11:12.315Z,185.9231
2023-05-10T12:12:13.724Z,189.6154